sensor_id;sensor_type;location;lat;lon;timestamp;P1;durP1;ratioP1;P2;durP2;ratioP2
84711;SDS011;74937;44.534;18.684;2024-03-23T00:54:02;70.90;;;34.00;;
84711;SDS011;74937;44.534;18.684;2024-03-23T00:56:28;60.97;;;30.15;;
84711;SDS011;74937;44.534;18.684;2024-03-23T00:58:54;71.72;;;35.40;;
84711;SDS011;74937;44.534;18.684;2024-03-23T01:01:20;75.43;;;35.67;;
84711;SDS011;74937;44.534;18.684;2024-03-23T01:03:46;85.10;;;38.50;;
84711;SDS011;74937;44.534;18.684;2024-03-23T01:06:12;78.25;;;38.67;;
84711;SDS011;74937;44.534;18.684;2024-03-23T01:08:37;75.10;;;34.97;;
84711;SDS011;74937;44.534;18.684;2024-03-23T01:11:03;62.83;;;29.88;;
84711;SDS011;74937;44.534;18.684;2024-03-23T01:13:29;45.88;;;24.13;;
84711;SDS011;74937;44.534;18.684;2024-03-23T01:15:55;46.75;;;24.45;;
84711;SDS011;74937;44.534;18.684;2024-03-23T01:18:23;50.83;;;25.17;;
84711;SDS011;74937;44.534;18.684;2024-03-23T01:20:49;52.25;;;26.52;;
84711;SDS011;74937;44.534;18.684;2024-03-23T01:23:15;56.15;;;27.17;;
84711;SDS011;74937;44.534;18.684;2024-03-23T01:25:41;51.22;;;26.17;;
84711;SDS011;74937;44.534;18.684;2024-03-23T01:28:06;48.28;;;24.73;;
84711;SDS011;74937;44.534;18.684;2024-03-23T01:30:36;49.88;;;25.40;;
84711;SDS011;74937;44.534;18.684;2024-03-23T01:33:01;45.10;;;22.70;;
84711;SDS011;74937;44.534;18.684;2024-03-23T01:35:30;48.28;;;23.83;;
84711;SDS011;74937;44.534;18.684;2024-03-23T01:37:56;46.00;;;22.65;;
84711;SDS011;74937;44.534;18.684;2024-03-23T01:40:22;47.58;;;23.88;;
84711;SDS011;74937;44.534;18.684;2024-03-23T01:43:03;50.58;;;26.95;;
84711;SDS011;74937;44.534;18.684;2024-03-23T01:45:30;57.05;;;28.55;;
84711;SDS011;74937;44.534;18.684;2024-03-23T01:47:57;63.63;;;28.15;;
84711;SDS011;74937;44.534;18.684;2024-03-23T01:50:24;48.35;;;25.70;;
84711;SDS011;74937;44.534;18.684;2024-03-23T01:52:50;53.38;;;26.90;;
84711;SDS011;74937;44.534;18.684;2024-03-23T01:55:16;62.25;;;29.92;;
84711;SDS011;74937;44.534;18.684;2024-03-23T01:57:42;58.47;;;28.30;;
84711;SDS011;74937;44.534;18.684;2024-03-23T02:00:07;58.85;;;28.65;;
84711;SDS011;74937;44.534;18.684;2024-03-23T02:02:44;57.50;;;26.42;;
84711;SDS011;74937;44.534;18.684;2024-03-23T02:05:11;45.42;;;21.17;;
84711;SDS011;74937;44.534;18.684;2024-03-23T02:10:07;39.83;;;18.48;;
84711;SDS011;74937;44.534;18.684;2024-03-23T02:12:34;43.35;;;21.42;;
84711;SDS011;74937;44.534;18.684;2024-03-23T02:15:01;39.80;;;22.17;;
84711;SDS011;74937;44.534;18.684;2024-03-23T02:17:27;48.13;;;23.85;;
84711;SDS011;74937;44.534;18.684;2024-03-23T02:19:54;54.00;;;25.63;;
84711;SDS011;74937;44.534;18.684;2024-03-23T02:22:20;55.20;;;25.75;;
84711;SDS011;74937;44.534;18.684;2024-03-23T02:24:45;49.92;;;27.58;;
84711;SDS011;74937;44.534;18.684;2024-03-23T02:27:11;59.28;;;27.30;;
84711;SDS011;74937;44.534;18.684;2024-03-23T02:29:36;55.30;;;27.80;;
84711;SDS011;74937;44.534;18.684;2024-03-23T02:32:02;59.45;;;28.33;;
84711;SDS011;74937;44.534;18.684;2024-03-23T02:34:28;56.17;;;28.10;;
84711;SDS011;74937;44.534;18.684;2024-03-23T02:36:53;50.72;;;26.73;;
84711;SDS011;74937;44.534;18.684;2024-03-23T02:39:19;52.83;;;26.40;;
84711;SDS011;74937;44.534;18.684;2024-03-23T02:41:45;54.08;;;27.02;;
84711;SDS011;74937;44.534;18.684;2024-03-23T02:44:11;53.15;;;27.30;;
84711;SDS011;74937;44.534;18.684;2024-03-23T02:46:39;58.60;;;28.80;;
84711;SDS011;74937;44.534;18.684;2024-03-23T02:49:05;61.10;;;29.70;;
84711;SDS011;74937;44.534;18.684;2024-03-23T02:51:31;53.55;;;26.58;;
84711;SDS011;74937;44.534;18.684;2024-03-23T02:53:56;59.50;;;29.50;;
84711;SDS011;74937;44.534;18.684;2024-03-23T02:56:22;49.70;;;27.73;;
84711;SDS011;74937;44.534;18.684;2024-03-23T02:58:48;54.35;;;28.95;;
84711;SDS011;74937;44.534;18.684;2024-03-23T03:01:14;64.30;;;29.88;;
84711;SDS011;74937;44.534;18.684;2024-03-23T03:03:40;60.28;;;32.67;;
84711;SDS011;74937;44.534;18.684;2024-03-23T03:06:06;71.90;;;34.58;;
84711;SDS011;74937;44.534;18.684;2024-03-23T03:08:31;75.22;;;35.78;;
84711;SDS011;74937;44.534;18.684;2024-03-23T03:10:57;70.10;;;36.40;;
84711;SDS011;74937;44.534;18.684;2024-03-23T03:13:23;57.83;;;27.10;;
84711;SDS011;74937;44.534;18.684;2024-03-23T03:15:48;44.40;;;23.38;;
84711;SDS011;74937;44.534;18.684;2024-03-23T03:18:14;44.67;;;22.63;;
84711;SDS011;74937;44.534;18.684;2024-03-23T03:20:40;45.50;;;22.38;;
84711;SDS011;74937;44.534;18.684;2024-03-23T03:23:06;47.88;;;22.85;;
84711;SDS011;74937;44.534;18.684;2024-03-23T03:25:32;43.85;;;22.48;;
84711;SDS011;74937;44.534;18.684;2024-03-23T03:27:58;40.38;;;21.27;;
84711;SDS011;74937;44.534;18.684;2024-03-23T03:30:24;43.33;;;23.08;;
84711;SDS011;74937;44.534;18.684;2024-03-23T03:32:50;42.88;;;21.35;;
84711;SDS011;74937;44.534;18.684;2024-03-23T03:35:20;44.25;;;22.05;;
84711;SDS011;74937;44.534;18.684;2024-03-23T03:37:45;44.42;;;22.02;;
84711;SDS011;74937;44.534;18.684;2024-03-23T03:40:11;40.13;;;21.95;;
84711;SDS011;74937;44.534;18.684;2024-03-23T03:42:40;41.08;;;22.65;;
84711;SDS011;74937;44.534;18.684;2024-03-23T03:45:06;42.67;;;21.55;;
84711;SDS011;74937;44.534;18.684;2024-03-23T03:47:32;39.60;;;20.45;;
84711;SDS011;74937;44.534;18.684;2024-03-23T03:49:57;41.35;;;19.92;;
84711;SDS011;74937;44.534;18.684;2024-03-23T03:52:23;40.28;;;20.92;;
84711;SDS011;74937;44.534;18.684;2024-03-23T03:54:49;36.78;;;21.15;;
84711;SDS011;74937;44.534;18.684;2024-03-23T03:57:14;36.58;;;19.05;;
84711;SDS011;74937;44.534;18.684;2024-03-23T03:59:40;36.58;;;19.90;;
84711;SDS011;74937;44.534;18.684;2024-03-23T04:02:06;33.80;;;18.92;;
84711;SDS011;74937;44.534;18.684;2024-03-23T04:04:31;35.22;;;19.25;;
84711;SDS011;74937;44.534;18.684;2024-03-23T04:07:00;39.22;;;21.20;;
84711;SDS011;74937;44.534;18.684;2024-03-23T04:09:27;34.10;;;19.05;;
84711;SDS011;74937;44.534;18.684;2024-03-23T04:11:53;37.30;;;20.10;;
84711;SDS011;74937;44.534;18.684;2024-03-23T04:14:19;44.17;;;23.13;;
84711;SDS011;74937;44.534;18.684;2024-03-23T04:16:45;52.60;;;25.27;;
84711;SDS011;74937;44.534;18.684;2024-03-23T04:19:10;38.53;;;20.38;;
84711;SDS011;74937;44.534;18.684;2024-03-23T04:21:37;43.17;;;22.38;;
84711;SDS011;74937;44.534;18.684;2024-03-23T04:24:03;39.67;;;19.35;;
84711;SDS011;74937;44.534;18.684;2024-03-23T04:26:29;34.88;;;18.58;;
84711;SDS011;74937;44.534;18.684;2024-03-23T04:28:55;43.33;;;21.75;;
84711;SDS011;74937;44.534;18.684;2024-03-23T04:31:20;41.35;;;21.55;;
84711;SDS011;74937;44.534;18.684;2024-03-23T04:33:47;41.70;;;22.30;;
84711;SDS011;74937;44.534;18.684;2024-03-23T04:36:12;37.92;;;20.88;;
84711;SDS011;74937;44.534;18.684;2024-03-23T04:38:38;44.65;;;21.92;;
84711;SDS011;74937;44.534;18.684;2024-03-23T04:41:04;37.63;;;20.80;;
84711;SDS011;74937;44.534;18.684;2024-03-23T04:43:29;43.22;;;20.25;;
84711;SDS011;74937;44.534;18.684;2024-03-23T04:45:55;36.58;;;19.17;;
84711;SDS011;74937;44.534;18.684;2024-03-23T04:48:21;37.95;;;18.23;;
84711;SDS011;74937;44.534;18.684;2024-03-23T04:50:48;35.00;;;18.00;;
84711;SDS011;74937;44.534;18.684;2024-03-23T04:53:15;31.42;;;17.45;;
84711;SDS011;74937;44.534;18.684;2024-03-23T04:55:41;30.38;;;16.35;;
84711;SDS011;74937;44.534;18.684;2024-03-23T05:00:33;34.88;;;17.73;;
84711;SDS011;74937;44.534;18.684;2024-03-23T05:02:59;40.35;;;21.13;;
84711;SDS011;74937;44.534;18.684;2024-03-23T05:05:24;47.88;;;24.45;;
84711;SDS011;74937;44.534;18.684;2024-03-23T05:07:50;51.90;;;25.15;;
84711;SDS011;74937;44.534;18.684;2024-03-23T05:10:16;51.60;;;24.40;;
84711;SDS011;74937;44.534;18.684;2024-03-23T05:12:41;44.13;;;22.08;;
84711;SDS011;74937;44.534;18.684;2024-03-23T05:15:07;42.80;;;22.40;;
84711;SDS011;74937;44.534;18.684;2024-03-23T05:17:33;43.47;;;19.45;;
84711;SDS011;74937;44.534;18.684;2024-03-23T05:19:59;37.00;;;18.50;;
84711;SDS011;74937;44.534;18.684;2024-03-23T05:22:25;36.22;;;19.35;;
84711;SDS011;74937;44.534;18.684;2024-03-23T05:24:52;37.58;;;20.00;;
84711;SDS011;74937;44.534;18.684;2024-03-23T05:27:18;35.42;;;17.60;;
84711;SDS011;74937;44.534;18.684;2024-03-23T05:29:44;34.55;;;18.48;;
84711;SDS011;74937;44.534;18.684;2024-03-23T05:32:10;35.90;;;18.70;;
84711;SDS011;74937;44.534;18.684;2024-03-23T05:34:35;36.72;;;18.42;;
84711;SDS011;74937;44.534;18.684;2024-03-23T05:37:01;37.42;;;18.02;;
84711;SDS011;74937;44.534;18.684;2024-03-23T05:39:28;38.47;;;19.77;;
84711;SDS011;74937;44.534;18.684;2024-03-23T05:41:53;30.50;;;16.25;;
84711;SDS011;74937;44.534;18.684;2024-03-23T05:44:19;33.30;;;18.33;;
84711;SDS011;74937;44.534;18.684;2024-03-23T05:46:45;30.52;;;17.67;;
84711;SDS011;74937;44.534;18.684;2024-03-23T05:49:13;30.08;;;17.48;;
84711;SDS011;74937;44.534;18.684;2024-03-23T05:51:40;29.17;;;16.67;;
84711;SDS011;74937;44.534;18.684;2024-03-23T05:54:06;31.02;;;16.20;;
84711;SDS011;74937;44.534;18.684;2024-03-23T05:56:32;31.48;;;16.23;;
84711;SDS011;74937;44.534;18.684;2024-03-23T05:58:57;30.13;;;16.40;;
84711;SDS011;74937;44.534;18.684;2024-03-23T06:01:23;28.40;;;15.73;;
84711;SDS011;74937;44.534;18.684;2024-03-23T06:03:48;30.27;;;16.38;;
84711;SDS011;74937;44.534;18.684;2024-03-23T06:06:14;32.47;;;15.75;;
84711;SDS011;74937;44.534;18.684;2024-03-23T06:08:40;29.20;;;15.43;;
84711;SDS011;74937;44.534;18.684;2024-03-23T06:11:06;30.55;;;17.95;;
84711;SDS011;74937;44.534;18.684;2024-03-23T06:13:32;34.08;;;19.10;;
84711;SDS011;74937;44.534;18.684;2024-03-23T06:15:59;35.53;;;18.52;;
84711;SDS011;74937;44.534;18.684;2024-03-23T06:20:51;27.40;;;17.05;;
84711;SDS011;74937;44.534;18.684;2024-03-23T06:23:17;30.02;;;16.30;;
84711;SDS011;74937;44.534;18.684;2024-03-23T06:25:45;27.75;;;15.73;;
84711;SDS011;74937;44.534;18.684;2024-03-23T06:28:11;25.95;;;15.88;;
84711;SDS011;74937;44.534;18.684;2024-03-23T06:30:36;30.00;;;16.27;;
84711;SDS011;74937;44.534;18.684;2024-03-23T06:33:02;30.48;;;16.65;;
84711;SDS011;74937;44.534;18.684;2024-03-23T06:35:27;29.95;;;16.40;;
84711;SDS011;74937;44.534;18.684;2024-03-23T06:37:53;29.17;;;18.05;;
84711;SDS011;74937;44.534;18.684;2024-03-23T06:40:19;31.08;;;17.83;;
84711;SDS011;74937;44.534;18.684;2024-03-23T06:42:44;31.90;;;18.40;;
84711;SDS011;74937;44.534;18.684;2024-03-23T06:45:10;26.92;;;16.63;;
84711;SDS011;74937;44.534;18.684;2024-03-23T06:47:36;46.28;;;28.08;;
84711;SDS011;74937;44.534;18.684;2024-03-23T06:50:02;54.55;;;35.08;;
84711;SDS011;74937;44.534;18.684;2024-03-23T06:52:29;43.05;;;27.02;;
84711;SDS011;74937;44.534;18.684;2024-03-23T06:54:55;41.67;;;22.20;;
84711;SDS011;74937;44.534;18.684;2024-03-23T06:57:21;33.88;;;20.40;;
84711;SDS011;74937;44.534;18.684;2024-03-23T06:59:47;32.00;;;19.15;;
84711;SDS011;74937;44.534;18.684;2024-03-23T07:02:13;28.60;;;18.63;;
84711;SDS011;74937;44.534;18.684;2024-03-23T07:04:38;28.52;;;17.55;;
84711;SDS011;74937;44.534;18.684;2024-03-23T07:07:07;27.13;;;17.55;;
84711;SDS011;74937;44.534;18.684;2024-03-23T07:09:32;26.63;;;18.25;;
84711;SDS011;74937;44.534;18.684;2024-03-23T07:11:58;26.50;;;18.05;;
84711;SDS011;74937;44.534;18.684;2024-03-23T07:16:50;22.70;;;15.50;;
84711;SDS011;74937;44.534;18.684;2024-03-23T07:19:16;25.38;;;15.60;;
84711;SDS011;74937;44.534;18.684;2024-03-23T07:21:43;24.08;;;15.40;;
84711;SDS011;74937;44.534;18.684;2024-03-23T07:24:13;23.00;;;14.65;;
84711;SDS011;74937;44.534;18.684;2024-03-23T07:26:39;29.15;;;16.95;;
84711;SDS011;74937;44.534;18.684;2024-03-23T07:29:04;24.30;;;15.73;;
84711;SDS011;74937;44.534;18.684;2024-03-23T07:31:31;23.33;;;14.52;;
84711;SDS011;74937;44.534;18.684;2024-03-23T07:33:57;25.30;;;15.95;;
84711;SDS011;74937;44.534;18.684;2024-03-23T07:36:23;22.38;;;12.98;;
84711;SDS011;74937;44.534;18.684;2024-03-23T07:38:48;21.40;;;14.80;;
84711;SDS011;74937;44.534;18.684;2024-03-23T07:41:14;22.58;;;14.63;;
84711;SDS011;74937;44.534;18.684;2024-03-23T07:43:44;22.52;;;14.48;;
84711;SDS011;74937;44.534;18.684;2024-03-23T07:46:11;22.50;;;15.05;;
84711;SDS011;74937;44.534;18.684;2024-03-23T07:48:38;22.73;;;14.45;;
84711;SDS011;74937;44.534;18.684;2024-03-23T07:51:08;18.95;;;12.65;;
84711;SDS011;74937;44.534;18.684;2024-03-23T07:53:36;19.25;;;12.73;;
84711;SDS011;74937;44.534;18.684;2024-03-23T07:56:05;18.88;;;12.55;;
84711;SDS011;74937;44.534;18.684;2024-03-23T07:58:31;18.02;;;12.75;;
84711;SDS011;74937;44.534;18.684;2024-03-23T08:01:03;15.05;;;11.00;;
84711;SDS011;74937;44.534;18.684;2024-03-23T08:03:38;16.67;;;10.55;;
84711;SDS011;74937;44.534;18.684;2024-03-23T08:06:08;16.20;;;11.15;;
84711;SDS011;74937;44.534;18.684;2024-03-23T08:11:02;14.68;;;10.50;;
84711;SDS011;74937;44.534;18.684;2024-03-23T08:13:29;15.23;;;10.30;;
84711;SDS011;74937;44.534;18.684;2024-03-23T08:16:02;13.88;;;9.73;;
84711;SDS011;74937;44.534;18.684;2024-03-23T08:18:29;17.13;;;11.02;;
84711;SDS011;74937;44.534;18.684;2024-03-23T08:21:04;15.57;;;10.77;;
84711;SDS011;74937;44.534;18.684;2024-03-23T08:23:32;13.23;;;10.10;;
84711;SDS011;74937;44.534;18.684;2024-03-23T08:26:07;13.85;;;9.52;;
84711;SDS011;74937;44.534;18.684;2024-03-23T08:28:35;14.63;;;9.60;;
84711;SDS011;74937;44.534;18.684;2024-03-23T08:31:02;14.95;;;10.20;;
84711;SDS011;74937;44.534;18.684;2024-03-23T08:33:30;17.23;;;10.30;;
84711;SDS011;74937;44.534;18.684;2024-03-23T08:35:57;15.98;;;10.38;;
84711;SDS011;74937;44.534;18.684;2024-03-23T08:38:24;14.27;;;9.77;;
84711;SDS011;74937;44.534;18.684;2024-03-23T08:43:22;15.05;;;9.77;;
84711;SDS011;74937;44.534;18.684;2024-03-23T08:45:48;16.58;;;9.63;;
84711;SDS011;74937;44.534;18.684;2024-03-23T08:48:14;16.55;;;10.90;;
84711;SDS011;74937;44.534;18.684;2024-03-23T08:50:39;18.85;;;11.35;;
84711;SDS011;74937;44.534;18.684;2024-03-23T08:53:05;17.52;;;11.40;;
84711;SDS011;74937;44.534;18.684;2024-03-23T08:55:31;16.65;;;10.27;;
84711;SDS011;74937;44.534;18.684;2024-03-23T08:57:56;19.17;;;11.00;;
84711;SDS011;74937;44.534;18.684;2024-03-23T09:00:22;17.83;;;11.43;;
84711;SDS011;74937;44.534;18.684;2024-03-23T09:02:48;18.58;;;10.93;;
84711;SDS011;74937;44.534;18.684;2024-03-23T09:05:13;15.75;;;9.70;;
84711;SDS011;74937;44.534;18.684;2024-03-23T09:07:39;15.48;;;11.35;;
84711;SDS011;74937;44.534;18.684;2024-03-23T09:10:05;16.38;;;10.07;;
84711;SDS011;74937;44.534;18.684;2024-03-23T09:12:31;17.13;;;10.07;;
84711;SDS011;74937;44.534;18.684;2024-03-23T09:14:56;18.08;;;10.05;;
84711;SDS011;74937;44.534;18.684;2024-03-23T09:17:22;16.58;;;10.30;;
84711;SDS011;74937;44.534;18.684;2024-03-23T09:19:47;17.58;;;10.07;;
84711;SDS011;74937;44.534;18.684;2024-03-23T09:22:13;14.95;;;9.30;;
84711;SDS011;74937;44.534;18.684;2024-03-23T09:24:39;16.20;;;9.48;;
84711;SDS011;74937;44.534;18.684;2024-03-23T09:27:05;14.80;;;9.13;;
84711;SDS011;74937;44.534;18.684;2024-03-23T09:29:31;14.25;;;9.02;;
84711;SDS011;74937;44.534;18.684;2024-03-23T09:31:57;10.45;;;7.22;;
84711;SDS011;74937;44.534;18.684;2024-03-23T09:34:22;11.30;;;7.93;;
84711;SDS011;74937;44.534;18.684;2024-03-23T09:36:51;14.40;;;8.90;;
84711;SDS011;74937;44.534;18.684;2024-03-23T09:39:17;12.38;;;8.88;;
84711;SDS011;74937;44.534;18.684;2024-03-23T09:41:44;11.77;;;7.90;;
84711;SDS011;74937;44.534;18.684;2024-03-23T09:44:10;13.95;;;7.65;;
84711;SDS011;74937;44.534;18.684;2024-03-23T09:46:36;11.73;;;7.50;;
84711;SDS011;74937;44.534;18.684;2024-03-23T09:49:05;12.65;;;8.20;;
84711;SDS011;74937;44.534;18.684;2024-03-23T09:51:35;11.10;;;7.80;;
84711;SDS011;74937;44.534;18.684;2024-03-23T09:54:02;10.85;;;6.40;;
84711;SDS011;74937;44.534;18.684;2024-03-23T09:56:27;9.18;;;6.15;;
84711;SDS011;74937;44.534;18.684;2024-03-23T09:59:00;11.25;;;6.05;;
84711;SDS011;74937;44.534;18.684;2024-03-23T10:01:29;11.90;;;6.47;;
84711;SDS011;74937;44.534;18.684;2024-03-23T10:03:55;9.10;;;5.88;;
84711;SDS011;74937;44.534;18.684;2024-03-23T10:08:50;6.03;;;4.78;;
84711;SDS011;74937;44.534;18.684;2024-03-23T10:11:16;7.88;;;5.63;;
84711;SDS011;74937;44.534;18.684;2024-03-23T10:16:09;7.72;;;5.53;;
84711;SDS011;74937;44.534;18.684;2024-03-23T10:18:38;7.88;;;6.00;;
84711;SDS011;74937;44.534;18.684;2024-03-23T10:23:31;9.30;;;6.45;;
84711;SDS011;74937;44.534;18.684;2024-03-23T10:28:51;7.60;;;5.43;;
84711;SDS011;74937;44.534;18.684;2024-03-23T10:31:23;10.77;;;5.70;;
84711;SDS011;74937;44.534;18.684;2024-03-23T10:33:49;8.45;;;5.47;;
84711;SDS011;74937;44.534;18.684;2024-03-23T10:36:15;7.97;;;5.38;;
84711;SDS011;74937;44.534;18.684;2024-03-23T10:38:41;7.60;;;4.82;;
84711;SDS011;74937;44.534;18.684;2024-03-23T10:41:11;8.15;;;5.30;;
84711;SDS011;74937;44.534;18.684;2024-03-23T10:43:37;10.75;;;6.18;;
84711;SDS011;74937;44.534;18.684;2024-03-23T10:46:03;8.50;;;5.43;;
84711;SDS011;74937;44.534;18.684;2024-03-23T10:48:31;9.18;;;5.82;;
84711;SDS011;74937;44.534;18.684;2024-03-23T10:50:57;7.78;;;5.20;;
84711;SDS011;74937;44.534;18.684;2024-03-23T10:53:25;9.40;;;5.43;;
84711;SDS011;74937;44.534;18.684;2024-03-23T10:55:51;10.32;;;5.38;;
84711;SDS011;74937;44.534;18.684;2024-03-23T10:58:20;6.60;;;4.90;;
84711;SDS011;74937;44.534;18.684;2024-03-23T11:00:54;8.80;;;5.32;;
84711;SDS011;74937;44.534;18.684;2024-03-23T11:09:02;8.52;;;5.00;;
84711;SDS011;74937;44.534;18.684;2024-03-23T11:11:28;9.90;;;5.70;;
84711;SDS011;74937;44.534;18.684;2024-03-23T11:13:57;9.40;;;4.82;;
84711;SDS011;74937;44.534;18.684;2024-03-23T11:16:28;7.15;;;5.07;;
84711;SDS011;74937;44.534;18.684;2024-03-23T11:22:04;5.55;;;4.20;;
84711;SDS011;74937;44.534;18.684;2024-03-23T11:24:31;6.45;;;4.50;;
84711;SDS011;74937;44.534;18.684;2024-03-23T11:26:57;7.93;;;4.50;;
84711;SDS011;74937;44.534;18.684;2024-03-23T11:29:29;5.75;;;4.13;;
84711;SDS011;74937;44.534;18.684;2024-03-23T11:31:55;8.63;;;4.93;;
84711;SDS011;74937;44.534;18.684;2024-03-23T11:34:21;8.23;;;5.22;;
84711;SDS011;74937;44.534;18.684;2024-03-23T11:36:47;6.47;;;4.85;;
84711;SDS011;74937;44.534;18.684;2024-03-23T11:39:16;6.40;;;4.40;;
84711;SDS011;74937;44.534;18.684;2024-03-23T11:41:46;6.30;;;4.57;;
84711;SDS011;74937;44.534;18.684;2024-03-23T11:44:16;5.97;;;4.38;;
84711;SDS011;74937;44.534;18.684;2024-03-23T11:46:46;5.45;;;3.75;;
84711;SDS011;74937;44.534;18.684;2024-03-23T11:51:50;5.75;;;3.78;;
84711;SDS011;74937;44.534;18.684;2024-03-23T11:54:25;4.82;;;3.13;;
84711;SDS011;74937;44.534;18.684;2024-03-23T11:59:57;6.38;;;3.90;;
84711;SDS011;74937;44.534;18.684;2024-03-23T12:02:15;6.18;;;3.97;;
84711;SDS011;74937;44.534;18.684;2024-03-23T12:04:43;5.68;;;3.95;;
84711;SDS011;74937;44.534;18.684;2024-03-23T12:07:12;4.75;;;3.75;;
84711;SDS011;74937;44.534;18.684;2024-03-23T12:09:38;5.35;;;3.72;;
84711;SDS011;74937;44.534;18.684;2024-03-23T12:12:14;6.07;;;3.63;;
84711;SDS011;74937;44.534;18.684;2024-03-23T12:14:42;5.82;;;3.90;;
84711;SDS011;74937;44.534;18.684;2024-03-23T12:17:25;4.93;;;3.90;;
84711;SDS011;74937;44.534;18.684;2024-03-23T12:19:51;5.07;;;3.80;;
84711;SDS011;74937;44.534;18.684;2024-03-23T12:22:21;6.38;;;4.15;;
84711;SDS011;74937;44.534;18.684;2024-03-23T12:24:47;7.05;;;4.32;;
84711;SDS011;74937;44.534;18.684;2024-03-23T12:27:13;5.70;;;3.70;;
84711;SDS011;74937;44.534;18.684;2024-03-23T12:29:40;5.70;;;3.80;;
84711;SDS011;74937;44.534;18.684;2024-03-23T12:32:11;7.32;;;4.22;;
84711;SDS011;74937;44.534;18.684;2024-03-23T12:34:37;7.18;;;4.32;;
84711;SDS011;74937;44.534;18.684;2024-03-23T12:37:03;5.97;;;4.53;;
84711;SDS011;74937;44.534;18.684;2024-03-23T12:39:29;7.45;;;4.47;;
84711;SDS011;74937;44.534;18.684;2024-03-23T12:41:55;5.53;;;3.78;;
84711;SDS011;74937;44.534;18.684;2024-03-23T12:44:20;6.13;;;4.50;;
84711;SDS011;74937;44.534;18.684;2024-03-23T12:46:46;6.65;;;3.83;;
84711;SDS011;74937;44.534;18.684;2024-03-23T12:49:12;7.70;;;4.50;;
84711;SDS011;74937;44.534;18.684;2024-03-23T12:51:38;6.68;;;4.30;;
84711;SDS011;74937;44.534;18.684;2024-03-23T12:54:04;6.40;;;4.53;;
84711;SDS011;74937;44.534;18.684;2024-03-23T12:56:30;9.07;;;4.35;;
84711;SDS011;74937;44.534;18.684;2024-03-23T12:58:56;5.43;;;3.85;;
84711;SDS011;74937;44.534;18.684;2024-03-23T13:01:26;6.25;;;4.22;;
84711;SDS011;74937;44.534;18.684;2024-03-23T13:03:52;5.63;;;4.28;;
84711;SDS011;74937;44.534;18.684;2024-03-23T13:06:18;7.03;;;4.13;;
84711;SDS011;74937;44.534;18.684;2024-03-23T13:08:47;5.63;;;4.00;;
84711;SDS011;74937;44.534;18.684;2024-03-23T13:11:15;6.43;;;4.05;;
84711;SDS011;74937;44.534;18.684;2024-03-23T13:13:41;7.50;;;4.40;;
84711;SDS011;74937;44.534;18.684;2024-03-23T13:18:32;6.55;;;4.30;;
84711;SDS011;74937;44.534;18.684;2024-03-23T13:20:58;6.70;;;5.35;;
84711;SDS011;74937;44.534;18.684;2024-03-23T13:25:50;5.65;;;4.50;;
84711;SDS011;74937;44.534;18.684;2024-03-23T13:28:20;7.35;;;4.82;;
84711;SDS011;74937;44.534;18.684;2024-03-23T13:30:55;6.63;;;4.38;;
84711;SDS011;74937;44.534;18.684;2024-03-23T13:33:29;6.93;;;4.70;;
84711;SDS011;74937;44.534;18.684;2024-03-23T13:35:55;6.18;;;4.57;;
84711;SDS011;74937;44.534;18.684;2024-03-23T13:38:24;6.53;;;4.60;;
84711;SDS011;74937;44.534;18.684;2024-03-23T13:40:56;6.15;;;4.07;;
84711;SDS011;74937;44.534;18.684;2024-03-23T13:43:24;7.15;;;4.85;;
84711;SDS011;74937;44.534;18.684;2024-03-23T13:45:57;5.43;;;4.15;;
84711;SDS011;74937;44.534;18.684;2024-03-23T13:48:25;7.07;;;5.07;;
84711;SDS011;74937;44.534;18.684;2024-03-23T13:51:01;10.13;;;5.28;;
84711;SDS011;74937;44.534;18.684;2024-03-23T13:53:28;8.00;;;5.22;;
84711;SDS011;74937;44.534;18.684;2024-03-23T13:58:20;8.07;;;5.07;;
84711;SDS011;74937;44.534;18.684;2024-03-23T14:00:46;8.88;;;4.95;;
84711;SDS011;74937;44.534;18.684;2024-03-23T14:03:12;6.93;;;4.60;;
84711;SDS011;74937;44.534;18.684;2024-03-23T14:05:38;7.90;;;5.60;;
84711;SDS011;74937;44.534;18.684;2024-03-23T14:10:33;7.60;;;5.22;;
84711;SDS011;74937;44.534;18.684;2024-03-23T14:12:59;7.72;;;6.18;;
84711;SDS011;74937;44.534;18.684;2024-03-23T14:15:28;8.63;;;6.00;;
84711;SDS011;74937;44.534;18.684;2024-03-23T14:17:55;7.78;;;5.80;;
84711;SDS011;74937;44.534;18.684;2024-03-23T14:22:47;11.30;;;6.00;;
84711;SDS011;74937;44.534;18.684;2024-03-23T14:25:13;11.80;;;6.25;;
84711;SDS011;74937;44.534;18.684;2024-03-23T14:27:39;12.35;;;6.13;;
84711;SDS011;74937;44.534;18.684;2024-03-23T14:30:06;8.30;;;6.32;;
84711;SDS011;74937;44.534;18.684;2024-03-23T14:32:32;10.02;;;6.20;;
84711;SDS011;74937;44.534;18.684;2024-03-23T14:35:01;10.93;;;6.70;;
84711;SDS011;74937;44.534;18.684;2024-03-23T14:37:27;8.30;;;6.13;;
84711;SDS011;74937;44.534;18.684;2024-03-23T14:42:20;10.25;;;6.90;;
84711;SDS011;74937;44.534;18.684;2024-03-23T14:44:46;9.35;;;5.88;;
84711;SDS011;74937;44.534;18.684;2024-03-23T14:47:12;11.25;;;5.95;;
84711;SDS011;74937;44.534;18.684;2024-03-23T14:49:37;11.20;;;6.35;;
84711;SDS011;74937;44.534;18.684;2024-03-23T14:52:03;9.60;;;6.38;;
84711;SDS011;74937;44.534;18.684;2024-03-23T14:54:29;9.23;;;5.85;;
84711;SDS011;74937;44.534;18.684;2024-03-23T14:56:55;9.80;;;5.82;;
84711;SDS011;74937;44.534;18.684;2024-03-23T14:59:23;8.00;;;5.63;;
84711;SDS011;74937;44.534;18.684;2024-03-23T15:01:49;7.07;;;5.05;;
84711;SDS011;74937;44.534;18.684;2024-03-23T15:04:15;10.23;;;6.22;;
84711;SDS011;74937;44.534;18.684;2024-03-23T15:06:40;11.05;;;6.25;;
84711;SDS011;74937;44.534;18.684;2024-03-23T15:09:07;8.32;;;5.55;;
84711;SDS011;74937;44.534;18.684;2024-03-23T15:11:37;9.63;;;6.25;;
84711;SDS011;74937;44.534;18.684;2024-03-23T15:16:28;8.43;;;5.45;;
84711;SDS011;74937;44.534;18.684;2024-03-23T15:18:53;8.63;;;6.03;;
84711;SDS011;74937;44.534;18.684;2024-03-23T15:21:19;8.73;;;5.32;;
84711;SDS011;74937;44.534;18.684;2024-03-23T15:23:46;8.43;;;4.68;;
84711;SDS011;74937;44.534;18.684;2024-03-23T15:26:13;7.30;;;5.13;;
84711;SDS011;74937;44.534;18.684;2024-03-23T15:28:38;7.63;;;5.05;;
84711;SDS011;74937;44.534;18.684;2024-03-23T15:31:22;5.68;;;4.65;;
84711;SDS011;74937;44.534;18.684;2024-03-23T15:33:49;12.05;;;5.75;;
84711;SDS011;74937;44.534;18.684;2024-03-23T15:36:14;7.95;;;5.00;;
84711;SDS011;74937;44.534;18.684;2024-03-23T15:38:41;9.18;;;5.28;;
84711;SDS011;74937;44.534;18.684;2024-03-23T15:43:32;12.98;;;8.98;;
84711;SDS011;74937;44.534;18.684;2024-03-23T15:46:02;15.02;;;9.85;;
84711;SDS011;74937;44.534;18.684;2024-03-23T15:48:29;16.08;;;9.85;;
84711;SDS011;74937;44.534;18.684;2024-03-23T15:50:57;6.85;;;5.38;;
84711;SDS011;74937;44.534;18.684;2024-03-23T15:53:27;8.88;;;5.45;;
84711;SDS011;74937;44.534;18.684;2024-03-23T15:55:59;9.88;;;5.25;;
84711;SDS011;74937;44.534;18.684;2024-03-23T15:58:29;6.75;;;4.95;;
84711;SDS011;74937;44.534;18.684;2024-03-23T16:03:25;9.95;;;4.82;;
84711;SDS011;74937;44.534;18.684;2024-03-23T16:05:55;8.45;;;4.90;;
84711;SDS011;74937;44.534;18.684;2024-03-23T16:08:24;8.40;;;4.93;;
84711;SDS011;74937;44.534;18.684;2024-03-23T16:10:51;8.15;;;4.90;;